Disclaimer   
PNR Super Search
 ♦ 
×
HashTag:
PNR Number:
Train Type:
Train:
From Station:
To Station:
Train Class:
2SSLCCEx3AFC2A1A3E
WL Quota:
DOJ From:
DOJ To:
Blogger:
Traveller:
Predictor:
Prediction:
WLRACConf
Stamper:
Final:
WLRACConfVoidQ-ConfUnStamped
Status:
Reaction:

Search
  Go  
 
Wed Jul 1, 2015 07:21:37 ISTHomeTrainsΣChainsAtlasPNRForumGalleryNewsFAQTripsMembersLoginFeedback
Wed Jul 1, 2015 07:21:37 IST
Post PNRPNR StatusModify Search

Ticket PNR Status Inquiry - PNR: 213-xxxxxxx (E-Ticket)

OLD STATUS

Status Last Updated on: Jul 15 2012 (4:19PM) IST

Date of Journey: Sun Aug 05, 2012   Class: AC 3-tier - 3A   (Total Seats available for this Class/Quota: Avbl 59)
Passenger 1: Confirmed (Booking Status: B1,40,GN)
Chart NOT Prepared

Amritsar - Mumbai CST (Pathankot) Express/11058

Travel Time: 22h 28m    47 halts    Distance: 1125 km    Avg Speed: 50 km/hr
Peak Observed Speed: n/a
Type: Mail/Express
Zone: CR/Central
Departs @ 20:50 (Avg 19m late)
Platform# 4
SMTWTFS
NDLS/New Delhi 
Arrives @ 19:18 +1 night (Avg 1h 36m late)
Platform# 2
SMTWTFS
JL/Jalgaon Junction 

47 halts. 156 intermediate Stations between New Delhi and Jalgaon Junction

Show ALL intermediate Stations  Show Old Time-Table

#TrkCodeStation NameX/OArrivesAvgDepartsAvgHaltPFDay#KmSpeedElevZoneAddress
1/==/ASRAmritsar Junction  -08:30+941-502.977233mNRAmritsar 143001, Punjab
2/==/JNLJandialaX  08:45+1808:47+182m21-483.768238mNRJandiala, Punjab
3/==/BEASBeas JunctionX  09:08+2209:10+222m21-459.961238mNRBeas, Punjab
4/==/KREKartarpurX  09:31+2009:33+202m11-438.473236mNRKartarpur, Punjab
5/==/JUCJalandhar City JunctionX  09:45+2709:55+2510m21-423.818239mNRJalandhar 144001, Punjab
6/==/JRCJalandhar Cantt. JunctionX  10:11+1710:13+172m21-418.970239mNRNear Rama Mandi, Punjab
7/==/PGWPhagwara JunctionX  10:27+2010:29+202m11-402.654245mNRPhagwara, Punjab
8/==/GRYGoraya  10:40+2010:42+202m11-392.864240mNRGoraya, Punjab
9/==/PHRPhillaur JunctionX  10:54+2010:56+202m11-380.133246mNRPhillaur, Punjab
10/==/LDHLudhiana Junction  11:20+1411:30+2410m41-367.029246mNRLudhiana 141001, Punjab
11|--|AHHAhmadgarh  12:23+1212:25+142m11-341.679256mNRAhmedgarh, Punjab
12|--|METMalerkotlaX  12:40+1912:42+192m21-321.753248mNRMalerkotla., Punjab
13|--|DUIDhuri Junction  13:01+2013:04+213m--1-304.973248mNRDhuri, Punjab
14|--|NBANabha  13:26+2813:28+282m11-278.070250mNRNabha, Punjab
15|--|PTAPatialaX  13:50+3213:53+363m11-252.137256mNRPatiala 147001, Punjab
16|--|RPJRajpura JunctionOO  14:33+2714:35+282m21-227.359272mNRNH-1., Punjab
17/==/UBCAmbala CityXO  14:56+2614:58+272m11-206.821273mNRNH-1, Haryana
18/==/UMBAmbala Cantt. JunctionXO15:20+2015:55+1:0635m--1-199.285278mNRAmbala 133001, Haryana
19/==/SHDMShahbad Markanda  16:09+2516:11+252m11-179.378267mNRShahabad Markanda, Haryana
20/==/KKDEKurukshetra JunctionX  16:28+2816:30+272m21-157.160260mNRKurukshetra, Haryana
21/==/NLKRNilokheriX  16:47+2616:49+272m--1-140.134254mNRNilokheri, Haryana
22/==/TRRTaraoriX  16:56+2616:58+282m21-136.140255mNRTaraori, Haryana
23/==/KUNKarnal  17:16+2417:18+242m11-124.066253mNRKarnal, Haryana
24/==/GRAGharaunda  17:34+2317:36+242m11-106.656244mNRGharaunda, Haryana
25/==/PNPPanipat JunctionX  17:54+2217:56+222m21-89.660235mNRPanipat, Haryana
26/==/SMKSamalkha  18:13+2118:15+212m11-72.657229mNRSamalkha, Haryana
27/==/GNUGanaur  18:28+2018:30+212m11-60.460222mNRGanaur, Haryana
28/==/SNPSonipat  18:46+2218:48+222m11-44.548225mNRSonipat, Haryana
29/==/RDDERathdhanaX  19:01+2119:03+212m11-34.050223mNRSonipat, Haryana
30/==/NURNarela  19:11+2119:13+212m11-27.459222mNRNarela, Delhi NCT
31/==/ANDIAdarsh Nagar  19:30+2219:32+222m11-10.721214mNRShalimar Bagh, Delhi NCT
32/==/SZMDelhi Sabzi Mandi  19:51+2019:53+242m31-4.19220mNRGulabi Bagh, Delhi NCT
33/==/NDLSNew Delhi»X  20:20+2120:50+1930m410.034215mNRNew Delhi 110002, Delhi NCT
34/==/NZMDelhi Hazrat NizamuddinX  21:03+2921:05+332m417.457209mNRNew Delhi 110013, Delhi NCT
35/==/FDBFaridabadX  21:27+3621:29+392m3128.237206mNRold Faridabad, Haryana
36/==/BVHBallabgarhO  21:42+4021:44+402m4136.229203mNRFaridabad, Haryana
37/==/PWLPalwal  22:28+1922:30+212m5157.485200mNRPalwal, Haryana
38/==/KSVKosi Kalan  23:00+2823:02+292m2199.975189mNCRKosi Kalan, Uttar Pradesh
39/==/MTJMathura Junction  23:35+3223:40+335m11141.356179mNCRMathura, Uttar Pradesh
40/==/RKMRaja Ki MandiX  00:33+3000:35+302m22191.012170mNCRAgra, Uttar Pradesh
41/==/AGCAgra Cantt.X  00:55+2201:03+348m12195.079174mNCRAgra, Uttar Pradesh
42/==/DHODholpur JunctionXO  01:43+3501:45+372m22247.673177mNCRDholpur, Rajasthan
43/==/MRAMorenaX  02:07+4302:09+452m12274.556176mNCRMorena, Madhya Pradesh
44/==/GWLGwalior JunctionX  02:50+4102:58+398m12313.073214mNCRGwalior, Madhya Pradesh
45/==/DBADabraX  03:33+4703:35+472m22355.349207mNCRDabra(District-Gwalior), Madhya Pradesh
46/==/SORSonagirX  03:58+4404:00+472m--2374.246211mNCRDatia, Madhya Pradesh
47/==/DAADatiaX  04:15+4804:17+492m22385.746264mNCRDatia, Madhya Pradesh
48/==/JHSJhansi JunctionX  04:50+5505:00+1:0010m52410.761259mNCRJhansi, Uttar Pradesh
49/==/BABBabinaX  05:25+1:1105:27+1:122m12436.252285mNCRBabina, Uttar Pradesh
50/==/BZYBasai  05:41+1:1205:43+1:142m12448.351287mNCR07522289600, Madhya Pradesh
51/==/TBTTalbahatX  05:58+1:1306:00+1:172m12461.252314mNCRKhaniyadhana Station Rd, Madhya Pradesh
52/==/LARLalitpurX  06:46+1:0506:48+1:112m22501.177373mNCRLalitpur, Uttar Pradesh
53/==/JLNJakhalaunXO  07:01+1:1607:03+1:172m22517.899394mNCRLalitpur(05176-272220), Uttar Pradesh
54/==/DUADhauraXO  07:10+1:2107:12+1:232m--2529.420407mNCRDhaura Tanda, Madhya Pradesh
55/==/BINABina JunctionX  08:55+3109:00+355m32564.069414mWCRBina District Saugor, Madhya Pradesh
56/==/MABAMandi BamoraX  09:15+4109:17+422m22581.278413mWCRState Highway 14 District Vidisha, Madhya Pradesh
57/==/BAQGanj BasodaX  09:39+4509:41+452m22609.769415mWCRDistrict Vidisha, Madhya Pradesh
58/==/GLGGulabGanjX  09:57+4609:59+462m--2628.074433mWCRVidisha, Madhya Pradesh
59/==/BHSVidishaX  10:16+4910:18+502m22649.056433mWCRVidisha, Madhya Pradesh
60/==/SCISanchiX  10:28+5210:30+542m--2658.466428mWCRRaisen, Madhya Pradesh
61/==/BPLBhopal JunctionX  11:10+1:0311:15+1:075m12702.538497mWCRBhopal, Madhya Pradesh
62/==/HBJBhopal HabibGanj  11:25+1:0711:27+1:072m42708.864496mWCRHabibGanj, Madhya Pradesh
63/==/MDDPMandi Dip  11:42+1:1011:44+1:112m12724.962455mWCRHoshangabad Road Mandideep District Raisen, Madhya Pradesh
64/==/ODGObaidulla Ganj  11:57+1:1311:59+1:142m12738.454448mWCRObaidullaganj Raisen Dist., Madhya Pradesh
65/==/BNIBudniX  12:33+1:2112:35+1:222m12769.246311mWCRDistrict Sehore 466445, Madhya Pradesh
66/==/HBDHoshangabadX  12:44+1:2412:46+1:272m22776.232308mWCRHoshangabad, Madhya Pradesh
67/==/ETItarsi Junction  13:20+1:2813:25+1:365m22794.384329mWCRItarsi 461111, Madhya Pradesh